createdAt,value
2019-04-29T00:00:41.369Z,6.47
2019-04-29T00:03:10.301Z,8.13
2019-04-29T00:05:39.158Z,6.30
2019-04-29T00:08:08.369Z,8.73
2019-04-29T00:10:37.330Z,5.43
2019-04-29T00:13:06.169Z,6.67
2019-04-29T00:16:00.619Z,4.97
2019-04-29T00:18:36.939Z,5.17
2019-04-29T00:21:06.041Z,6.40
2019-04-29T00:23:34.878Z,5.23
2019-04-29T00:26:03.809Z,8.97
2019-04-29T00:28:32.581Z,7.93
2019-04-29T00:31:01.712Z,7.83
2019-04-29T00:33:30.859Z,8.73
2019-04-29T00:35:59.649Z,17.23
2019-04-29T00:38:49.233Z,11.97
2019-04-29T00:41:49.294Z,7.87
2019-04-29T00:44:18.346Z,7.63
2019-04-29T00:46:47.285Z,9.63
2019-04-29T00:49:16.236Z,7.40
2019-04-29T00:51:45.063Z,8.00
2019-04-29T00:54:24.140Z,7.20
2019-04-29T00:56:53.021Z,8.37
2019-04-29T00:59:21.886Z,6.33
2019-04-29T01:01:50.779Z,7.83
2019-04-29T01:04:19.734Z,9.17
2019-04-29T01:06:48.961Z,6.90
2019-04-29T01:09:18.406Z,13.07
2019-04-29T01:11:47.261Z,9.30
2019-04-29T01:14:16.046Z,8.07
2019-04-29T01:16:44.842Z,7.80
2019-04-29T01:19:13.762Z,7.50
2019-04-29T01:21:42.634Z,8.47
2019-04-29T01:24:11.414Z,12.37
2019-04-29T01:27:05.250Z,8.87
2019-04-29T01:29:34.114Z,8.37
2019-04-29T01:32:03.667Z,8.73
2019-04-29T01:34:38.446Z,7.63
2019-04-29T01:37:07.261Z,8.73
2019-04-29T01:39:47.918Z,6.43
2019-04-29T01:42:20.746Z,9.10
2019-04-29T01:44:49.529Z,10.13
2019-04-29T01:47:18.485Z,10.27
2019-04-29T01:49:47.304Z,7.37
2019-04-29T01:52:16.080Z,8.00
2019-04-29T01:54:44.944Z,9.93
2019-04-29T01:57:13.734Z,7.30
2019-04-29T01:59:42.605Z,10.13
2019-04-29T02:02:11.450Z,7.83
2019-04-29T02:04:40.331Z,7.40
2019-04-29T02:07:09.187Z,7.50
2019-04-29T02:10:12.379Z,6.43
2019-04-29T02:12:41.486Z,6.90
2019-04-29T02:15:10.409Z,9.73
2019-04-29T02:17:39.198Z,7.23
2019-04-29T02:20:08.269Z,7.77
2019-04-29T02:22:42.459Z,5.80
2019-04-29T02:25:16.207Z,6.80
2019-04-29T02:27:44.981Z,7.93
2019-04-29T02:30:37.673Z,6.73
2019-04-29T02:33:06.466Z,7.80
2019-04-29T02:35:35.326Z,6.23
2019-04-29T02:38:06.222Z,8.23
2019-04-29T02:40:41.885Z,8.80
2019-04-29T02:43:19.090Z,9.83
2019-04-29T02:45:47.943Z,8.23
2019-04-29T02:48:16.750Z,8.70
2019-04-29T02:50:45.627Z,7.20
2019-04-29T02:53:14.481Z,8.17
2019-04-29T02:55:47.818Z,6.63
2019-04-29T02:58:25.549Z,8.93
2019-04-29T03:01:13.573Z,6.57
2019-04-29T03:04:04.705Z,9.40
2019-04-29T03:06:33.569Z,10.83
2019-04-29T03:09:02.447Z,8.90
2019-04-29T03:11:31.279Z,12.30
2019-04-29T03:14:00.175Z,6.60
2019-04-29T03:16:29.091Z,6.73
2019-04-29T03:19:02.179Z,7.23
2019-04-29T03:21:38.585Z,15.37
2019-04-29T03:24:07.390Z,7.70
2019-04-29T03:26:36.319Z,7.37
2019-04-29T03:29:07.672Z,10.47
2019-04-29T03:31:39.276Z,8.90
2019-04-29T03:34:07.047Z,9.07
2019-04-29T03:36:35.835Z,14.47
2019-04-29T03:39:05.886Z,12.50
2019-04-29T03:41:34.756Z,11.17
2019-04-29T03:44:03.883Z,13.03
2019-04-29T03:46:32.743Z,11.07
2019-04-29T03:49:01.586Z,10.80
2019-04-29T03:51:30.377Z,15.17
2019-04-29T03:53:59.246Z,11.03
2019-04-29T03:56:28.402Z,14.67
2019-04-29T03:58:57.274Z,16.57
2019-04-29T04:01:34.219Z,21.10
2019-04-29T04:04:07.963Z,41.30
2019-04-29T04:06:50.282Z,64.27
2019-04-29T04:09:24.467Z,25.20
2019-04-29T04:11:58.445Z,38.27
2019-04-29T04:14:27.418Z,8.57
2019-04-29T04:17:20.216Z,15.70
2019-04-29T04:19:46.954Z,21.03
2019-04-29T04:22:15.831Z,12.53
2019-04-29T04:24:44.755Z,12.47
2019-04-29T04:27:13.705Z,11.37
2019-04-29T04:29:42.491Z,18.47
2019-04-29T04:32:11.294Z,28.73
2019-04-29T04:34:40.227Z,47.33
2019-04-29T04:37:09.015Z,78.43
2019-04-29T04:39:39.446Z,35.53
2019-04-29T04:42:08.325Z,21.07
2019-04-29T04:44:49.680Z,21.07
2019-04-29T04:47:19.979Z,10.30
2019-04-29T04:49:49.185Z,10.47
2019-04-29T04:52:18.142Z,10.33
2019-04-29T04:54:49.098Z,13.47
2019-04-29T04:57:17.894Z,11.10
2019-04-29T04:59:46.681Z,15.43
2019-04-29T05:02:15.554Z,12.13
2019-04-29T05:04:44.338Z,11.17
2019-04-29T05:07:13.270Z,9.93
2019-04-29T05:09:42.114Z,8.97
2019-04-29T05:12:13.903Z,9.10
2019-04-29T05:14:41.668Z,10.23
2019-04-29T05:17:11.078Z,8.87
2019-04-29T05:19:39.958Z,9.90
2019-04-29T05:22:08.814Z,12.90
2019-04-29T05:24:37.594Z,13.50
2019-04-29T05:27:06.374Z,14.07
2019-04-29T05:29:35.162Z,11.00
2019-04-29T05:32:04.129Z,10.83
2019-04-29T05:34:34.575Z,8.80
2019-04-29T05:37:18.235Z,10.80
2019-04-29T05:39:47.220Z,9.93
2019-04-29T05:42:17.327Z,7.87
2019-04-29T05:45:01.733Z,8.77
2019-04-29T05:47:42.218Z,7.87
2019-04-29T05:50:30.112Z,8.97
2019-04-29T05:53:04.854Z,9.90
2019-04-29T05:55:33.686Z,7.10
2019-04-29T05:58:11.477Z,6.20
2019-04-29T06:00:42.316Z,8.80
2019-04-29T06:03:11.483Z,9.90
2019-04-29T06:05:40.333Z,8.43
2019-04-29T06:08:09.269Z,10.67
2019-04-29T06:10:38.058Z,9.77
2019-04-29T06:13:06.833Z,7.10
2019-04-29T06:15:35.970Z,9.93
2019-04-29T06:18:05.551Z,7.03
2019-04-29T06:20:34.410Z,6.33
2019-04-29T06:23:03.257Z,6.13
2019-04-29T06:25:32.333Z,5.50
2019-04-29T06:28:01.117Z,7.10
2019-04-29T06:30:29.966Z,7.40
2019-04-29T06:32:58.831Z,7.20
2019-04-29T06:35:27.618Z,8.07
2019-04-29T06:37:56.389Z,7.77
2019-04-29T06:40:25.173Z,8.33
2019-04-29T06:42:55.211Z,7.63
2019-04-29T06:45:24.330Z,7.63
2019-04-29T06:47:53.227Z,5.23
2019-04-29T06:50:22.156Z,6.50
2019-04-29T06:52:51.014Z,7.33
2019-04-29T06:55:19.877Z,3.93
2019-04-29T06:57:48.645Z,5.83
2019-04-29T07:00:22.059Z,4.30
2019-04-29T07:02:49.911Z,5.65
2019-04-29T07:05:19.207Z,5.50
2019-04-29T07:07:47.989Z,7.97
2019-04-29T07:10:21.809Z,5.90
2019-04-29T07:12:48.470Z,4.95
2019-04-29T07:15:17.430Z,7.20
2019-04-29T07:17:46.290Z,5.08
2019-04-29T07:20:15.233Z,4.65
2019-04-29T07:22:44.252Z,4.55
2019-04-29T07:25:13.397Z,4.75
2019-04-29T07:27:44.232Z,7.42
2019-04-29T07:30:13.083Z,4.30
2019-04-29T07:32:46.489Z,6.55
2019-04-29T07:35:13.153Z,5.12
2019-04-29T07:37:42.009Z,5.60
2019-04-29T07:40:11.356Z,4.85
2019-04-29T07:42:40.134Z,6.72
2019-04-29T07:45:44.011Z,5.75
2019-04-29T07:48:06.345Z,4.22
2019-04-29T07:50:35.461Z,6.15
2019-04-29T07:53:04.314Z,5.60
2019-04-29T07:55:33.115Z,5.78
2019-04-29T07:58:02.033Z,8.18
2019-04-29T08:00:35.026Z,7.95
2019-04-29T08:03:06.893Z,4.15
2019-04-29T08:05:35.874Z,6.10
2019-04-29T08:08:05.717Z,5.47
2019-04-29T08:10:34.741Z,6.97
2019-04-29T08:13:04.181Z,8.05
2019-04-29T08:15:36.726Z,4.75
2019-04-29T08:18:06.632Z,7.90
2019-04-29T08:20:35.431Z,6.62
2019-04-29T08:23:05.471Z,6.90
2019-04-29T08:25:34.898Z,6.30
2019-04-29T08:28:03.766Z,6.65
2019-04-29T08:30:32.743Z,7.78
2019-04-29T08:33:01.610Z,5.20
2019-04-29T08:35:32.695Z,5.53
2019-04-29T08:38:00.921Z,4.55
2019-04-29T08:40:29.842Z,4.60
2019-04-29T08:43:09.887Z,6.85
2019-04-29T08:45:42.709Z,3.10
2019-04-29T08:48:11.762Z,5.25
2019-04-29T08:50:40.618Z,4.87
2019-04-29T08:53:09.412Z,4.58
2019-04-29T08:55:38.194Z,4.08
2019-04-29T08:58:11.158Z,5.20
2019-04-29T09:00:38.490Z,6.45
2019-04-29T09:03:07.417Z,6.28
2019-04-29T09:05:36.329Z,4.10
2019-04-29T09:08:05.821Z,7.55
2019-04-29T09:10:36.726Z,6.03
2019-04-29T09:13:05.250Z,5.50
2019-04-29T09:15:34.005Z,5.45
2019-04-29T09:18:02.954Z,4.78
2019-04-29T09:20:31.879Z,5.15
2019-04-29T09:23:04.008Z,4.55
2019-04-29T09:26:02.446Z,5.12
2019-04-29T09:28:27.444Z,5.55
2019-04-29T09:30:53.111Z,5.15
2019-04-29T09:33:21.890Z,5.95
2019-04-29T09:35:50.762Z,4.37
2019-04-29T09:38:19.627Z,6.05
2019-04-29T09:40:58.969Z,4.03
2019-04-29T09:43:46.785Z,4.28
2019-04-29T09:46:23.246Z,6.70
2019-04-29T09:48:52.648Z,6.08
2019-04-29T09:51:22.742Z,3.62
2019-04-29T09:53:52.166Z,4.03
2019-04-29T09:56:20.940Z,2.98
2019-04-29T09:58:51.816Z,2.87
2019-04-29T10:01:42.771Z,5.22
2019-04-29T10:04:22.922Z,3.40
2019-04-29T10:06:54.342Z,4.03
2019-04-29T10:09:23.359Z,7.05
2019-04-29T10:11:52.160Z,3.75
2019-04-29T10:14:21.138Z,4.33
2019-04-29T10:17:16.484Z,5.92
2019-04-29T10:20:08.116Z,5.00
2019-04-29T10:22:37.240Z,9.00
2019-04-29T10:25:06.813Z,3.77
2019-04-29T10:27:35.670Z,8.75
2019-04-29T10:30:05.609Z,5.15
2019-04-29T10:32:37.799Z,4.90
2019-04-29T10:35:08.764Z,4.25
2019-04-29T10:37:37.207Z,5.33
2019-04-29T10:40:20.688Z,4.10
2019-04-29T10:43:03.607Z,4.17
2019-04-29T10:45:50.493Z,5.33
2019-04-29T10:48:27.107Z,6.45
2019-04-29T10:50:56.588Z,5.60
2019-04-29T10:53:27.343Z,5.15
2019-04-29T10:55:56.025Z,5.50
2019-04-29T10:58:29.858Z,5.20
2019-04-29T11:01:36.086Z,6.20
2019-04-29T11:04:05.109Z,8.45
2019-04-29T11:06:35.699Z,5.45
2019-04-29T11:09:35.653Z,8.03
2019-04-29T11:12:08.750Z,6.42
2019-04-29T11:14:37.578Z,6.12
2019-04-29T11:17:16.094Z,6.75
2019-04-29T11:19:39.947Z,6.25
2019-04-29T11:22:10.814Z,7.03
2019-04-29T11:25:17.252Z,7.87
2019-04-29T11:27:50.029Z,7.95
2019-04-29T11:30:22.989Z,7.75
2019-04-29T11:33:00.098Z,7.60
2019-04-29T11:35:35.712Z,5.80
2019-04-29T11:38:06.413Z,6.47
2019-04-29T11:40:43.480Z,5.85
2019-04-29T11:43:10.832Z,6.85
2019-04-29T11:45:38.537Z,7.47
2019-04-29T11:48:08.618Z,8.08
2019-04-29T11:50:45.185Z,7.35
2019-04-29T11:53:15.575Z,7.47
2019-04-29T11:55:46.379Z,9.25
2019-04-29T11:58:23.278Z,9.43
2019-04-29T12:01:11.518Z,7.72
2019-04-29T12:03:40.849Z,8.50
2019-04-29T12:06:10.697Z,9.30
2019-04-29T12:08:39.569Z,8.88
2019-04-29T12:11:08.478Z,9.93
2019-04-29T12:13:58.909Z,10.30
2019-04-29T12:16:39.217Z,10.15
2019-04-29T12:19:17.082Z,9.95
2019-04-29T12:21:45.631Z,9.95
2019-04-29T12:24:14.805Z,10.40
2019-04-29T12:26:44.637Z,10.32
2019-04-29T12:29:18.179Z,13.13
2019-04-29T12:32:10.676Z,13.20
2019-04-29T12:34:57.170Z,11.57
2019-04-29T12:37:54.205Z,13.78
2019-04-29T12:40:45.619Z,12.00
2019-04-29T12:43:32.418Z,11.40
2019-04-29T12:46:12.616Z,11.53
2019-04-29T12:48:41.457Z,11.25
2019-04-29T12:51:10.322Z,11.28
2019-04-29T12:53:39.190Z,12.93
2019-04-29T12:56:11.370Z,11.20
2019-04-29T12:58:39.029Z,10.68
2019-04-29T13:01:18.242Z,10.72
2019-04-29T13:04:06.143Z,10.38
2019-04-29T13:06:54.083Z,9.43
2019-04-29T13:09:34.820Z,9.23
2019-04-29T13:12:17.807Z,8.35
2019-04-29T13:14:34.919Z,9.80
2019-04-29T13:17:14.858Z,11.15
2019-04-29T13:20:01.005Z,10.23
2019-04-29T13:22:17.286Z,11.40
2019-04-29T13:24:46.121Z,10.50
2019-04-29T13:27:16.227Z,8.60
2019-04-29T13:29:45.518Z,7.08
2019-04-29T13:32:14.367Z,7.92
2019-04-29T13:34:44.963Z,9.05
2019-04-29T13:37:18.790Z,8.40
2019-04-29T13:39:44.674Z,8.60
2019-04-29T13:42:15.752Z,7.95
2019-04-29T13:45:04.639Z,8.10
2019-04-29T13:47:50.373Z,7.92
2019-04-29T13:50:37.948Z,7.92
2019-04-29T13:52:53.357Z,7.42
2019-04-29T13:55:46.542Z,6.78
2019-04-29T13:57:54.870Z,7.35
2019-04-29T14:00:41.306Z,7.70
2019-04-29T14:03:13.689Z,9.08
2019-04-29T14:05:42.618Z,6.85
2019-04-29T14:08:11.401Z,7.12
2019-04-29T14:10:40.265Z,6.53
2019-04-29T14:13:13.472Z,6.03
2019-04-29T14:15:40.434Z,6.40
2019-04-29T14:18:11.716Z,6.30
2019-04-29T14:20:39.949Z,8.15
2019-04-29T14:23:08.871Z,7.28
2019-04-29T14:25:38.141Z,7.03
2019-04-29T14:28:06.999Z,30.35
2019-04-29T14:30:39.031Z,11.75
2019-04-29T14:33:06.794Z,6.67
2019-04-29T14:36:00.902Z,7.15
2019-04-29T14:38:29.854Z,8.18
2019-04-29T14:40:58.818Z,6.58
2019-04-29T14:43:44.526Z,6.62
2019-04-29T14:46:38.498Z,6.25
2019-04-29T14:49:10.529Z,6.95
2019-04-29T14:51:39.458Z,7.58
2019-04-29T14:54:08.247Z,6.47
2019-04-29T14:56:37.034Z,8.35
2019-04-29T14:59:07.363Z,7.40
2019-04-29T15:01:41.560Z,9.35
2019-04-29T15:04:18.430Z,5.90
2019-04-29T15:06:42.895Z,6.28
2019-04-29T15:09:17.478Z,5.97
2019-04-29T15:11:52.787Z,34.85
2019-04-29T15:14:47.184Z,6.90
2019-04-29T15:17:44.801Z,5.67
2019-04-29T15:20:38.150Z,5.60
2019-04-29T15:23:07.085Z,6.35
2019-04-29T15:25:35.854Z,5.50
2019-04-29T15:28:04.845Z,6.03
2019-04-29T15:30:36.844Z,5.47
2019-04-29T15:33:04.430Z,6.00
2019-04-29T15:35:33.285Z,6.83
2019-04-29T15:38:02.078Z,6.55
2019-04-29T15:40:31.300Z,6.35
2019-04-29T15:43:00.158Z,6.55
2019-04-29T15:45:32.414Z,6.00
2019-04-29T15:47:59.945Z,5.80
2019-04-29T15:50:32.671Z,6.30
2019-04-29T15:53:02.909Z,5.58
2019-04-29T15:55:29.825Z,5.90
2019-04-29T15:57:58.826Z,5.33
2019-04-29T16:00:36.507Z,5.85
2019-04-29T16:02:58.205Z,5.97
2019-04-29T16:05:56.189Z,5.25
2019-04-29T16:08:29.665Z,7.92
2019-04-29T16:11:16.580Z,6.08
2019-04-29T16:13:48.216Z,6.20
2019-04-29T16:16:16.107Z,6.62
2019-04-29T16:18:45.065Z,6.28
2019-04-29T16:21:13.841Z,6.35
2019-04-29T16:23:42.625Z,7.75
2019-04-29T16:26:11.405Z,7.42
2019-04-29T16:28:40.367Z,7.40
2019-04-29T16:31:12.072Z,8.35
2019-04-29T16:33:39.955Z,7.70
2019-04-29T16:36:08.882Z,8.70
2019-04-29T16:38:37.750Z,10.00
2019-04-29T16:41:19.515Z,8.50
2019-04-29T16:43:48.606Z,9.98
2019-04-29T16:46:32.113Z,9.10
2019-04-29T16:48:53.801Z,9.38
2019-04-29T16:51:22.595Z,11.03
2019-04-29T16:53:51.460Z,10.25
2019-04-29T16:56:20.695Z,10.95
2019-04-29T16:58:49.548Z,10.28
2019-04-29T17:01:18.556Z,10.03
2019-04-29T17:03:47.359Z,10.57
2019-04-29T17:06:16.303Z,10.40
2019-04-29T17:09:05.447Z,12.40
2019-04-29T17:11:35.541Z,11.87
2019-04-29T17:14:10.084Z,11.67
2019-04-29T17:16:35.217Z,11.40
2019-04-29T17:19:05.654Z,11.90
2019-04-29T17:21:34.616Z,11.20
2019-04-29T17:24:03.381Z,10.98
2019-04-29T17:26:40.098Z,10.65
2019-04-29T17:29:38.920Z,9.75
2019-04-29T17:32:17.133Z,11.30
2019-04-29T17:34:58.976Z,22.00
2019-04-29T17:37:17.815Z,15.57
2019-04-29T17:39:46.606Z,14.27
2019-04-29T17:42:15.486Z,13.03
2019-04-29T17:44:45.593Z,13.20
2019-04-29T17:47:33.633Z,12.87
2019-04-29T17:50:30.427Z,10.63
2019-04-29T17:52:59.120Z,10.85
2019-04-29T17:55:42.636Z,11.37
2019-04-29T17:58:19.331Z,12.10
2019-04-29T18:01:05.324Z,10.73
2019-04-29T18:03:55.775Z,10.80
2019-04-29T18:06:31.331Z,10.00
2019-04-29T18:09:28.417Z,9.85
2019-04-29T18:11:58.272Z,9.90
2019-04-29T18:14:36.652Z,11.23
2019-04-29T18:16:58.203Z,11.28
2019-04-29T18:19:34.873Z,11.57
2019-04-29T18:22:32.345Z,11.50
2019-04-29T18:25:30.531Z,12.47
2019-04-29T18:27:53.526Z,12.37
2019-04-29T18:30:34.676Z,13.20
2019-04-29T18:32:55.122Z,13.13
2019-04-29T18:35:25.567Z,12.27
2019-04-29T18:37:55.716Z,12.40
2019-04-29T18:40:25.817Z,15.37
2019-04-29T18:42:55.398Z,13.40
2019-04-29T18:45:25.456Z,13.10
2019-04-29T18:47:55.024Z,15.30
2019-04-29T18:50:23.894Z,14.40
2019-04-29T18:52:53.266Z,14.73
2019-04-29T18:55:22.072Z,15.40
2019-04-29T18:57:50.870Z,15.63
2019-04-29T19:00:21.809Z,15.80
2019-04-29T19:02:56.917Z,15.47
2019-04-29T19:05:32.361Z,17.20
2019-04-29T19:08:11.403Z,16.80
2019-04-29T19:10:34.358Z,17.70
2019-04-29T19:13:05.406Z,19.57
2019-04-29T19:15:32.501Z,18.33
2019-04-29T19:18:02.014Z,20.30
2019-04-29T19:20:31.121Z,20.63
2019-04-29T19:23:08.302Z,21.07
2019-04-29T19:25:30.493Z,20.97
2019-04-29T19:28:11.508Z,20.93
2019-04-29T19:30:30.134Z,23.13
2019-04-29T19:33:00.368Z,21.20
2019-04-29T19:35:34.626Z,23.57
2019-04-29T19:38:00.517Z,23.60
2019-04-29T19:40:30.576Z,22.63
2019-04-29T19:42:59.957Z,26.10
2019-04-29T19:45:28.771Z,23.73
2019-04-29T19:47:57.571Z,23.50
2019-04-29T19:50:26.353Z,25.33
2019-04-29T19:52:55.502Z,27.07
2019-04-29T19:55:25.264Z,28.63
2019-04-29T19:57:56.146Z,27.77
2019-04-29T20:00:29.361Z,28.70
2019-04-29T20:02:57.247Z,28.93
2019-04-29T20:05:39.759Z,30.03
2019-04-29T20:08:07.513Z,29.63
2019-04-29T20:10:44.592Z,28.33
2019-04-29T20:13:07.561Z,28.73
2019-04-29T20:15:45.181Z,29.57
2019-04-29T20:18:37.188Z,28.33
2019-04-29T20:21:20.843Z,28.27
2019-04-29T20:23:43.559Z,27.40
2019-04-29T20:26:18.909Z,27.13
2019-04-29T20:28:45.929Z,26.60
2019-04-29T20:31:21.473Z,26.47
2019-04-29T20:33:46.977Z,30.43
2019-04-29T20:36:23.698Z,26.33
2019-04-29T20:38:47.058Z,26.07
2019-04-29T20:41:19.515Z,26.83
2019-04-29T20:43:46.669Z,27.93
2019-04-29T20:46:17.957Z,27.17
2019-04-29T20:48:50.447Z,29.43
2019-04-29T20:51:17.401Z,31.47
2019-04-29T20:53:51.751Z,30.13
2019-04-29T20:56:25.346Z,30.57
2019-04-29T20:58:51.332Z,31.17
2019-04-29T21:01:26.497Z,33.07
2019-04-29T21:03:56.705Z,38.60
2019-04-29T21:06:25.874Z,33.90
2019-04-29T21:08:55.167Z,33.70
2019-04-29T21:11:35.724Z,39.53
2019-04-29T21:14:34.124Z,51.80
2019-04-29T21:17:02.233Z,35.27
2019-04-29T21:19:31.022Z,39.03
2019-04-29T21:21:59.838Z,39.07
2019-04-29T21:24:28.745Z,38.63
2019-04-29T21:26:57.593Z,40.60
2019-04-29T21:29:26.472Z,40.40
2019-04-29T21:31:59.822Z,38.87
2019-04-29T21:34:34.564Z,42.53
2019-04-29T21:37:18.645Z,35.73
2019-04-29T21:40:13.693Z,39.10
2019-04-29T21:42:50.049Z,36.47
2019-04-29T21:45:19.637Z,33.30
2019-04-29T21:47:53.165Z,36.53
2019-04-29T21:50:19.559Z,38.50
2019-04-29T21:52:48.356Z,36.17
2019-04-29T21:55:20.542Z,36.63
2019-04-29T21:57:48.000Z,34.83
2019-04-29T22:00:24.070Z,35.90
2019-04-29T22:02:49.237Z,35.30
2019-04-29T22:05:18.644Z,38.90
2019-04-29T22:07:47.658Z,36.50
2019-04-29T22:10:20.049Z,32.63
2019-04-29T22:12:50.860Z,33.83
2019-04-29T22:15:29.266Z,32.73
2019-04-29T22:17:56.217Z,30.27
2019-04-29T22:20:19.018Z,30.40
2019-04-29T22:22:47.944Z,31.67
2019-04-29T22:25:17.102Z,31.23
2019-04-29T22:27:46.217Z,30.10
2019-04-29T22:30:18.483Z,29.77
2019-04-29T22:32:47.128Z,28.90
2019-04-29T22:35:17.425Z,29.57
2019-04-29T22:37:46.372Z,28.37
2019-04-29T22:40:17.447Z,28.83
2019-04-29T22:43:10.075Z,26.53
2019-04-29T22:45:36.469Z,27.77
2019-04-29T22:48:14.937Z,26.60
2019-04-29T22:50:38.107Z,26.17
2019-04-29T22:53:08.859Z,27.17
2019-04-29T22:55:38.559Z,26.30
2019-04-29T22:58:09.773Z,25.93
2019-04-29T23:00:38.124Z,26.40
2019-04-29T23:03:07.222Z,27.27
2019-04-29T23:05:37.841Z,24.73
2019-04-29T23:08:06.696Z,28.93
2019-04-29T23:10:35.737Z,28.43
2019-04-29T23:13:06.278Z,27.43
2019-04-29T23:15:35.821Z,27.90
2019-04-29T23:18:05.261Z,26.47
2019-04-29T23:20:51.822Z,26.83
2019-04-29T23:23:29.121Z,28.43
2019-04-29T23:25:59.886Z,27.77
2019-04-29T23:28:28.402Z,27.97
2019-04-29T23:30:57.381Z,29.03
2019-04-29T23:33:26.514Z,29.13
2019-04-29T23:35:56.091Z,30.90
2019-04-29T23:38:25.579Z,29.07
2019-04-29T23:40:56.304Z,29.17
2019-04-29T23:43:28.435Z,27.07
2019-04-29T23:45:58.168Z,30.20
2019-04-29T23:48:38.095Z,27.93
2019-04-29T23:50:58.341Z,29.27
2019-04-29T23:53:27.324Z,29.27
2019-04-29T23:56:00.098Z,27.67
2019-04-29T23:58:37.081Z,27.87
